createdAt,value
2024-03-02T00:00:52.773Z,99800.84
2024-03-02T00:03:20.498Z,99822.25
2024-03-02T00:05:53.080Z,99799.13
2024-03-02T00:08:26.270Z,99793.16
2024-03-02T00:10:59.944Z,99816.25
2024-03-02T00:13:27.454Z,99811.13
2024-03-02T00:15:56.431Z,99815.41
2024-03-02T00:18:32.603Z,99813.72
2024-03-02T00:21:00.981Z,99802.56
2024-03-02T00:23:32.605Z,99829.97
2024-03-02T00:26:01.119Z,99825.69
2024-03-02T00:28:36.302Z,99834.25
2024-03-02T00:31:06.383Z,99841.13
2024-03-02T00:33:36.042Z,99853.06
2024-03-02T00:36:05.724Z,99861.63
2024-03-02T00:38:32.720Z,99875.34
2024-03-02T00:41:09.824Z,99875.31
2024-03-02T00:43:36.439Z,99886.44
2024-03-02T00:46:03.068Z,99894.16
2024-03-02T00:48:32.686Z,99892.47
2024-03-02T00:50:59.384Z,99902.69
2024-03-02T00:53:27.475Z,99893.28
2024-03-02T00:55:54.390Z,99889.00
2024-03-02T00:58:21.033Z,99902.66
2024-03-02T01:00:47.715Z,99908.63
2024-03-02T01:03:14.365Z,99905.16
2024-03-02T01:05:44.619Z,99911.13
2024-03-02T01:08:11.980Z,99917.06
2024-03-02T01:10:38.570Z,99919.59
2024-03-02T01:13:05.169Z,99918.69
2024-03-02T01:15:31.880Z,99934.91
2024-03-02T01:17:58.665Z,99932.31
2024-03-02T01:20:25.992Z,99922.91
2024-03-02T01:22:53.332Z,99912.59
2024-03-02T01:25:19.917Z,99921.09
2024-03-02T01:27:50.241Z,99917.69
2024-03-02T01:30:17.536Z,99942.41
2024-03-02T01:32:44.406Z,99936.44
2024-03-02T01:35:11.074Z,99931.31
2024-03-02T01:37:37.660Z,99931.28
2024-03-02T01:40:10.190Z,99937.25
2024-03-02T01:42:38.342Z,99929.53
2024-03-02T01:45:08.636Z,99934.69
2024-03-02T01:47:36.196Z,99938.06
2024-03-02T01:50:03.127Z,99947.47
2024-03-02T01:52:30.605Z,99947.44
2024-03-02T01:54:57.632Z,99939.69
2024-03-02T01:57:24.460Z,99940.56
2024-03-02T01:59:53.157Z,99940.56
2024-03-02T02:02:21.205Z,99947.41
2024-03-02T02:04:47.943Z,99947.38
2024-03-02T02:07:15.721Z,99951.69
2024-03-02T02:09:43.325Z,99948.22
2024-03-02T02:12:11.296Z,99948.25
2024-03-02T02:14:38.298Z,99947.34
2024-03-02T02:17:05.027Z,99949.06
2024-03-02T02:19:31.550Z,99940.50
2024-03-02T02:21:58.146Z,99938.69
2024-03-02T02:24:24.864Z,99949.00
2024-03-02T02:26:51.419Z,99955.78
2024-03-02T02:29:18.400Z,99957.53
2024-03-02T02:31:45.114Z,99972.03
2024-03-02T02:34:11.737Z,99966.88
2024-03-02T02:36:41.069Z,99938.69
2024-03-02T02:39:11.969Z,99943.72
2024-03-02T02:41:39.710Z,99947.94
2024-03-02T02:44:06.455Z,99946.19
2024-03-02T02:46:33.044Z,99941.06
2024-03-02T02:48:59.735Z,99956.50
2024-03-02T02:51:29.005Z,99955.63
2024-03-02T02:53:55.588Z,99950.47
2024-03-02T02:56:22.192Z,99957.25
2024-03-02T02:58:48.948Z,99965.81
2024-03-02T03:01:19.212Z,99969.25
2024-03-02T03:03:46.738Z,99980.28
2024-03-02T03:06:13.594Z,99973.47
2024-03-02T03:08:40.291Z,99975.97
2024-03-02T03:11:07.138Z,99968.25
2024-03-02T03:13:34.991Z,99963.94
2024-03-02T03:16:01.720Z,99974.13
2024-03-02T03:18:28.425Z,99969.84
2024-03-02T03:20:55.085Z,99968.19
2024-03-02T03:23:22.008Z,99965.56
2024-03-02T03:25:48.656Z,99965.56
2024-03-02T03:28:15.226Z,99965.53
2024-03-02T03:30:42.219Z,99962.97
2024-03-02T03:33:08.820Z,99971.44
2024-03-02T03:35:36.040Z,99978.16
2024-03-02T03:38:02.660Z,99977.25
2024-03-02T03:40:29.247Z,99967.75
2024-03-02T03:42:57.345Z,99972.88
2024-03-02T03:45:24.010Z,99965.13
2024-03-02T03:47:50.616Z,99973.66
2024-03-02T03:50:17.562Z,99979.56
2024-03-02T03:52:44.871Z,99990.69
2024-03-02T03:55:11.522Z,99986.41
2024-03-02T03:57:38.131Z,99989.78
2024-03-02T04:00:05.549Z,99988.97
2024-03-02T04:02:32.151Z,100000.09
2024-03-02T04:04:58.772Z,100008.59
2024-03-02T04:07:25.320Z,100004.31
2024-03-02T04:09:51.910Z,100009.47
2024-03-02T04:12:18.570Z,100012.91
2024-03-02T04:14:45.224Z,100003.56
2024-03-02T04:17:11.810Z,100007.00
2024-03-02T04:19:38.395Z,100017.22
2024-03-02T04:22:12.465Z,100013.84
2024-03-02T04:24:45.280Z,100007.03
2024-03-02T04:27:11.858Z,100009.66
2024-03-02T04:29:38.424Z,100019.06
2024-03-02T04:32:05.792Z,100014.00
2024-03-02T04:34:32.359Z,100015.00
2024-03-02T04:36:58.941Z,100008.13
2024-03-02T04:39:26.121Z,100018.44
2024-03-02T04:41:52.694Z,100018.47
2024-03-02T04:44:19.254Z,100020.22
2024-03-02T04:46:45.800Z,100020.19
2024-03-02T04:49:12.482Z,100029.59
2024-03-02T04:51:39.188Z,100027.94
2024-03-02T04:54:05.911Z,100025.41
2024-03-02T04:56:32.466Z,100026.16
2024-03-02T04:58:58.997Z,100038.88
2024-03-02T05:01:25.612Z,100041.38
2024-03-02T05:03:52.319Z,100038.66
2024-03-02T05:06:19.034Z,100030.88
2024-03-02T05:08:46.152Z,100036.06
2024-03-02T05:11:33.469Z,100042.06
2024-03-02T05:14:00.050Z,100036.06
2024-03-02T05:16:26.599Z,100042.00
2024-03-02T05:18:53.261Z,100045.34
2024-03-02T05:21:19.901Z,100038.53
2024-03-02T05:23:46.774Z,100037.66
2024-03-02T05:26:13.975Z,100053.06
2024-03-02T05:28:40.657Z,100057.34
2024-03-02T05:31:07.873Z,100061.53
2024-03-02T05:33:34.601Z,100059.81
2024-03-02T05:36:03.003Z,100054.69
2024-03-02T05:38:29.612Z,100058.00
2024-03-02T05:40:56.167Z,100062.31
2024-03-02T05:43:22.759Z,100061.34
2024-03-02T05:45:49.390Z,100063.88
2024-03-02T05:48:18.349Z,100060.47
2024-03-02T05:50:45.054Z,100060.31
2024-03-02T05:53:14.573Z,100061.03
2024-03-02T05:55:41.137Z,100057.59
2024-03-02T05:58:07.663Z,100054.91
2024-03-02T06:00:34.806Z,100061.69
2024-03-02T06:03:01.563Z,100065.88
2024-03-02T06:05:28.180Z,100069.19
2024-03-02T06:07:54.840Z,100069.16
2024-03-02T06:10:22.012Z,100065.78
2024-03-02T06:12:48.694Z,100061.41
2024-03-02T06:15:15.336Z,100078.44
2024-03-02T06:17:42.011Z,100077.56
2024-03-02T06:20:09.718Z,100081.84
2024-03-02T06:22:36.558Z,100082.75
2024-03-02T06:25:03.285Z,100088.66
2024-03-02T06:27:29.876Z,100094.66
2024-03-02T06:29:56.536Z,100092.03
2024-03-02T06:32:24.200Z,100096.34
2024-03-02T06:34:50.727Z,100092.22
2024-03-02T06:37:17.476Z,100095.53
2024-03-02T06:39:44.871Z,100103.25
2024-03-02T06:42:11.434Z,100106.88
2024-03-02T06:44:38.024Z,100103.53
2024-03-02T06:47:05.386Z,100103.63
2024-03-02T06:49:32.008Z,100110.53
2024-03-02T06:51:58.570Z,100110.53
2024-03-02T06:54:25.209Z,100110.69
2024-03-02T06:56:54.485Z,100114.13
2024-03-02T06:59:21.104Z,100115.22
2024-03-02T07:01:47.681Z,100117.88
2024-03-02T07:04:14.282Z,100109.38
2024-03-02T07:06:40.982Z,100111.09
2024-03-02T07:09:11.951Z,100110.28
2024-03-02T07:11:38.545Z,100111.25
2024-03-02T07:14:05.074Z,100106.22
2024-03-02T07:16:34.227Z,100114.81
2024-03-02T07:19:02.460Z,100109.84
2024-03-02T07:21:29.250Z,100098.72
2024-03-02T07:23:55.910Z,100115.06
2024-03-02T07:28:53.020Z,100100.88
2024-03-02T07:31:19.590Z,100110.41
2024-03-02T07:33:47.564Z,100115.63
2024-03-02T07:36:14.363Z,100117.38
2024-03-02T07:38:41.698Z,100117.47
2024-03-02T07:41:09.721Z,100120.84
2024-03-02T07:43:36.333Z,100129.50
2024-03-02T07:46:04.359Z,100139.88
2024-03-02T07:48:32.122Z,100138.19
2024-03-02T07:50:58.861Z,100138.97
2024-03-02T07:53:25.437Z,100136.25
2024-03-02T07:55:52.035Z,100141.41
2024-03-02T07:58:20.635Z,100138.78
2024-03-02T08:00:47.873Z,100132.75
2024-03-02T08:03:16.161Z,100135.38
2024-03-02T08:05:42.866Z,100135.28
2024-03-02T08:08:09.556Z,100149.78
2024-03-02T08:10:36.154Z,100148.88
2024-03-02T08:13:03.026Z,100160.75
2024-03-02T08:15:29.757Z,100163.38
2024-03-02T08:17:57.600Z,100156.50
2024-03-02T08:20:24.323Z,100148.06
2024-03-02T08:22:51.051Z,100154.06
2024-03-02T08:25:17.998Z,100158.47
2024-03-02T08:27:44.626Z,100171.34
2024-03-02T08:30:11.967Z,100168.78
2024-03-02T08:32:38.617Z,100164.56
2024-03-02T08:35:06.140Z,100164.56
2024-03-02T08:37:32.828Z,100171.44
2024-03-02T08:39:59.978Z,100168.88
2024-03-02T08:42:26.841Z,100159.50
2024-03-02T08:44:53.451Z,100154.38
2024-03-02T08:47:20.102Z,100166.59
2024-03-02T08:49:46.693Z,100160.78
2024-03-02T08:52:14.103Z,100160.75
2024-03-02T08:54:40.776Z,100162.56
2024-03-02T08:57:08.434Z,100164.34
2024-03-02T08:59:35.204Z,100159.31
2024-03-02T09:02:01.910Z,100147.38
2024-03-02T09:04:31.672Z,100160.28
2024-03-02T09:07:00.565Z,100161.13
2024-03-02T09:09:27.203Z,100156.88
2024-03-02T09:11:56.195Z,100160.28
2024-03-02T09:14:23.093Z,100157.81
2024-03-02T09:16:52.182Z,100163.72
2024-03-02T09:19:19.901Z,100167.19
2024-03-02T09:21:46.524Z,100155.31
2024-03-02T09:24:16.637Z,100163.94
2024-03-02T09:26:45.057Z,100164.78
2024-03-02T09:29:11.688Z,100173.38
2024-03-02T09:31:44.650Z,100165.72
2024-03-02T09:34:11.269Z,100159.72
2024-03-02T09:36:37.879Z,100167.44
2024-03-02T09:39:05.450Z,100176.91
2024-03-02T09:41:34.063Z,100167.44
2024-03-02T09:44:01.054Z,100171.69
2024-03-02T09:46:27.643Z,100176.88
2024-03-02T09:48:54.565Z,100181.19
2024-03-02T09:51:21.439Z,100170.09
2024-03-02T09:53:48.724Z,100174.38
2024-03-02T09:56:16.950Z,100168.47
2024-03-02T09:58:45.094Z,100171.84
2024-03-02T10:01:11.958Z,100172.75
2024-03-02T10:03:41.161Z,100171.91
2024-03-02T10:06:25.638Z,100176.22
2024-03-02T10:08:52.680Z,100173.66
2024-03-02T10:11:35.148Z,100165.94
2024-03-02T10:14:12.232Z,100165.09
2024-03-02T10:16:44.565Z,100172.81
2024-03-02T10:19:25.191Z,100166.78
2024-03-02T10:21:53.720Z,100170.25
2024-03-02T10:24:22.009Z,100170.25
2024-03-02T10:26:49.473Z,100166.81
2024-03-02T10:29:16.473Z,100169.38
2024-03-02T10:31:44.874Z,100169.41
2024-03-02T10:34:12.510Z,100165.94
2024-03-02T10:36:42.657Z,100169.41
2024-03-02T10:39:09.912Z,100166.81
2024-03-02T10:41:38.289Z,100162.53
2024-03-02T10:44:09.204Z,100157.38
2024-03-02T10:46:37.938Z,100167.66
2024-03-02T10:49:08.580Z,100170.19
2024-03-02T10:51:37.812Z,100162.50
2024-03-02T10:54:05.590Z,100153.03
2024-03-02T10:56:33.039Z,100155.63
2024-03-02T10:59:25.745Z,100154.75
2024-03-02T11:02:05.026Z,100148.72
2024-03-02T11:04:33.062Z,100151.28
2024-03-02T11:07:07.501Z,100143.53
2024-03-02T11:09:36.261Z,100136.66
2024-03-02T11:12:30.544Z,100127.19
2024-03-02T11:14:57.839Z,100128.03
2024-03-02T11:17:26.298Z,100135.75
2024-03-02T11:19:53.926Z,100132.31
2024-03-02T11:22:21.714Z,100128.00
2024-03-02T11:24:53.389Z,100143.47
2024-03-02T11:27:49.311Z,100139.16
2024-03-02T11:30:34.719Z,100134.88
2024-03-02T11:33:09.559Z,100136.56
2024-03-02T11:35:49.461Z,100139.97
2024-03-02T11:38:16.196Z,100130.50
2024-03-02T11:40:43.008Z,100133.06
2024-03-02T11:43:10.570Z,100145.13
2024-03-02T11:45:42.466Z,100139.91
2024-03-02T11:48:13.701Z,100130.41
2024-03-02T11:50:43.432Z,100141.56
2024-03-02T11:53:11.759Z,100126.13
2024-03-02T11:55:39.191Z,100118.38
2024-03-02T11:58:06.209Z,100120.94
2024-03-02T12:00:33.266Z,100118.31
2024-03-02T12:03:10.475Z,100120.06
2024-03-02T12:05:37.611Z,100117.41
2024-03-02T12:08:06.147Z,100119.09
2024-03-02T12:10:35.753Z,100124.28
2024-03-02T12:13:12.281Z,100107.06
2024-03-02T12:15:41.028Z,100107.97
2024-03-02T12:18:07.900Z,100102.81
2024-03-02T12:20:35.477Z,100109.63
2024-03-02T12:23:04.087Z,100088.91
2024-03-02T12:25:32.903Z,100087.28
2024-03-02T12:28:02.183Z,100088.13
2024-03-02T12:30:31.781Z,100093.31
2024-03-02T12:32:58.441Z,100099.03
2024-03-02T12:35:26.485Z,100095.63
2024-03-02T12:37:54.389Z,100088.00
2024-03-02T12:40:23.442Z,100075.94
2024-03-02T12:42:50.749Z,100083.63
2024-03-02T12:45:25.094Z,100081.84
2024-03-02T12:47:53.066Z,100083.53
2024-03-02T12:50:20.769Z,100076.66
2024-03-02T12:52:55.066Z,100074.97
2024-03-02T12:55:26.021Z,100075.72
2024-03-02T12:57:54.234Z,100060.13
2024-03-02T13:00:22.311Z,100060.13
2024-03-02T13:02:52.760Z,100065.28
2024-03-02T13:05:20.881Z,100056.66
2024-03-02T13:07:51.397Z,100047.22
2024-03-02T13:10:19.291Z,100054.03
2024-03-02T13:12:46.353Z,100048.75
2024-03-02T13:15:16.453Z,100053.81
2024-03-02T13:17:46.979Z,100056.50
2024-03-02T13:20:15.361Z,100057.38
2024-03-02T13:22:42.321Z,100050.53
2024-03-02T13:25:11.722Z,100056.59
2024-03-02T13:27:38.603Z,100054.75
2024-03-02T13:30:07.084Z,100055.59
2024-03-02T13:32:33.964Z,100055.72
2024-03-02T13:35:01.438Z,100059.09
2024-03-02T13:37:28.192Z,100045.53
2024-03-02T13:39:54.904Z,100043.78
2024-03-02T13:42:21.566Z,100045.44
2024-03-02T13:44:49.547Z,100049.66
2024-03-02T13:47:16.571Z,100036.88
2024-03-02T13:49:48.211Z,100047.22
2024-03-02T13:52:16.237Z,100047.16
2024-03-02T13:54:47.086Z,100052.38
2024-03-02T13:57:13.865Z,100047.06
2024-03-02T13:59:43.915Z,100039.47
2024-03-02T14:02:12.324Z,100040.41
2024-03-02T14:04:40.158Z,100036.16
2024-03-02T14:07:10.102Z,100043.13
2024-03-02T14:09:37.604Z,100036.28
2024-03-02T14:12:05.813Z,100042.34
2024-03-02T14:14:32.720Z,100038.81
2024-03-02T14:17:05.511Z,100031.16
2024-03-02T14:19:32.840Z,100021.69
2024-03-02T14:22:00.903Z,100015.78
2024-03-02T14:24:29.362Z,100015.81
2024-03-02T14:27:05.460Z,100027.88
2024-03-02T14:29:38.882Z,100014.97
2024-03-02T14:32:06.124Z,100014.88
2024-03-02T14:34:32.870Z,100023.59
2024-03-02T14:37:00.018Z,100021.03
2024-03-02T14:39:27.835Z,100009.00
2024-03-02T14:41:56.075Z,100005.50
2024-03-02T14:44:22.716Z,99995.09
2024-03-02T14:46:49.491Z,99989.03
2024-03-02T14:49:16.485Z,99972.75
2024-03-02T14:51:43.119Z,99962.47
2024-03-02T14:54:10.227Z,99965.09
2024-03-02T14:56:36.794Z,99958.19
2024-03-02T14:59:03.378Z,99966.78
2024-03-02T15:01:30.112Z,99969.38
2024-03-02T15:03:56.795Z,99971.97
2024-03-02T15:06:23.729Z,99977.97
2024-03-02T15:08:50.948Z,99986.63
2024-03-02T15:11:17.586Z,99991.06
2024-03-02T15:13:44.235Z,99987.66
2024-03-02T15:16:10.957Z,99986.00
2024-03-02T15:18:38.024Z,99980.06
2024-03-02T15:21:05.123Z,99986.88
2024-03-02T15:23:31.645Z,99989.47
2024-03-02T15:25:58.365Z,99993.75
2024-03-02T15:28:24.932Z,99983.34
2024-03-02T15:30:53.450Z,99991.03
2024-03-02T15:33:21.858Z,99988.41
2024-03-02T15:35:48.510Z,99984.13
2024-03-02T15:38:24.688Z,99973.72
2024-03-02T15:40:58.944Z,99982.44
2024-03-02T15:43:25.536Z,99984.06
2024-03-02T15:45:52.230Z,99980.53
2024-03-02T15:48:18.858Z,99984.81
2024-03-02T15:50:45.489Z,99983.25
2024-03-02T15:53:12.096Z,99992.72
2024-03-02T15:55:38.658Z,99984.19
2024-03-02T15:58:07.058Z,99993.59
2024-03-02T16:00:33.775Z,99992.81
2024-03-02T16:03:00.526Z,99991.03
2024-03-02T16:05:27.066Z,99991.03
2024-03-02T16:07:53.709Z,99978.09
2024-03-02T16:10:20.309Z,99983.34
2024-03-02T16:12:48.044Z,99985.91
2024-03-02T16:15:15.447Z,99973.91
2024-03-02T16:17:42.071Z,99965.41
2024-03-02T16:20:09.157Z,99962.78
2024-03-02T16:22:35.875Z,99953.31
2024-03-02T16:25:02.694Z,99943.91
2024-03-02T16:27:29.564Z,99937.00
2024-03-02T16:29:57.489Z,99949.09
2024-03-02T16:32:24.069Z,99949.06
2024-03-02T16:34:50.724Z,99941.47
2024-03-02T16:37:17.348Z,99946.72
2024-03-02T16:39:44.473Z,99950.16
2024-03-02T16:42:11.036Z,99959.63
2024-03-02T16:44:37.596Z,99945.97
2024-03-02T16:47:05.414Z,99955.41
2024-03-02T16:49:31.931Z,99945.09
2024-03-02T16:51:58.491Z,99953.69
2024-03-02T16:54:25.176Z,99956.16
2024-03-02T16:56:51.759Z,99949.34
2024-03-02T16:59:18.391Z,99951.03
2024-03-02T17:01:44.983Z,99957.03
2024-03-02T17:04:11.773Z,99951.00
2024-03-02T17:06:38.432Z,99953.59
2024-03-02T17:09:05.042Z,99942.47
2024-03-02T17:11:32.152Z,99947.66
2024-03-02T17:13:59.272Z,99947.63
2024-03-02T17:16:26.189Z,99938.22
2024-03-02T17:18:53.708Z,99951.13
2024-03-02T17:21:21.068Z,99952.84
2024-03-02T17:23:48.256Z,99946.03
2024-03-02T17:26:15.171Z,99950.31
2024-03-02T17:28:42.436Z,99957.13
2024-03-02T17:31:09.270Z,99953.72
2024-03-02T17:33:36.130Z,99958.94
2024-03-02T17:36:03.471Z,99965.81
2024-03-02T17:38:30.091Z,99970.09
2024-03-02T17:40:58.054Z,99961.59
2024-03-02T17:43:24.763Z,99974.50
2024-03-02T17:45:51.572Z,99968.47
2024-03-02T17:48:18.311Z,99977.94
2024-03-02T17:50:44.950Z,99980.53
2024-03-02T17:53:11.567Z,99978.81
2024-03-02T17:55:38.415Z,99985.69
2024-03-02T17:58:05.208Z,99983.97
2024-03-02T18:00:32.323Z,99988.28
2024-03-02T18:02:59.012Z,99980.53
2024-03-02T18:05:25.608Z,99974.56
2024-03-02T18:07:52.219Z,99979.72
2024-03-02T18:10:18.963Z,99986.56
2024-03-02T18:12:46.838Z,99985.69
2024-03-02T18:15:13.434Z,99991.72
2024-03-02T18:17:40.035Z,99979.75
2024-03-02T18:20:07.399Z,99976.31
2024-03-02T18:22:35.814Z,99977.97
2024-03-02T18:25:03.015Z,99983.97
2024-03-02T18:27:29.870Z,99976.13
2024-03-02T18:29:56.949Z,99982.97
2024-03-02T18:32:23.917Z,99982.94
2024-03-02T18:34:50.582Z,99981.19
2024-03-02T18:37:18.145Z,99978.56
2024-03-02T18:39:48.577Z,99982.00
2024-03-02T18:42:16.423Z,99987.19
2024-03-02T18:44:43.627Z,99976.03
2024-03-02T18:47:12.166Z,99987.09
2024-03-02T18:49:45.916Z,99986.16
2024-03-02T18:52:15.479Z,99987.03
2024-03-02T18:54:42.665Z,99995.69
2024-03-02T18:57:10.775Z,99998.22
2024-03-02T18:59:37.595Z,99993.97
2024-03-02T19:02:04.786Z,99986.25
2024-03-02T19:04:31.647Z,99996.59
2024-03-02T19:06:58.498Z,99985.44
2024-03-02T19:09:25.178Z,99987.19
2024-03-02T19:11:51.746Z,99989.78
2024-03-02T19:14:18.267Z,99982.97
2024-03-02T19:16:45.356Z,99988.97
2024-03-02T19:19:12.057Z,99979.44
2024-03-02T19:21:38.750Z,99975.13
2024-03-02T19:24:05.471Z,99978.47
2024-03-02T19:26:32.026Z,99975.09
2024-03-02T19:28:58.601Z,99968.25
2024-03-02T19:31:25.240Z,99970.06
2024-03-02T19:33:52.732Z,99970.03
2024-03-02T19:36:20.180Z,99971.81
2024-03-02T19:38:46.839Z,99967.56
2024-03-02T19:41:13.407Z,99966.72
2024-03-02T19:43:39.940Z,99972.81
2024-03-02T19:46:06.521Z,99966.75
2024-03-02T19:48:33.174Z,99962.47
2024-03-02T19:50:59.787Z,99962.41
2024-03-02T19:53:26.776Z,99961.47
2024-03-02T19:55:53.432Z,99953.84
2024-03-02T19:58:20.367Z,99960.69
2024-03-02T20:00:47.146Z,99958.03
2024-03-02T20:03:15.171Z,99949.53
2024-03-02T20:05:41.797Z,99953.84
2024-03-02T20:08:11.277Z,99953.78
2024-03-02T20:10:38.452Z,99934.13
2024-03-02T20:13:07.151Z,99941.88
2024-03-02T20:15:34.140Z,99950.47
2024-03-02T20:18:01.430Z,99943.59
2024-03-02T20:20:28.205Z,99942.72
2024-03-02T20:22:54.800Z,99937.59
2024-03-02T20:25:21.489Z,99927.31
2024-03-02T20:27:48.190Z,99939.31
2024-03-02T20:30:14.914Z,99936.75
2024-03-02T20:32:41.635Z,99939.31
2024-03-02T20:35:08.675Z,99935.06
2024-03-02T20:37:35.300Z,99947.97
2024-03-02T20:40:02.115Z,99930.78
2024-03-02T20:42:28.898Z,99944.47
2024-03-02T20:44:55.508Z,99953.97
2024-03-02T20:47:23.851Z,99949.63
2024-03-02T20:49:52.161Z,99946.25
2024-03-02T20:52:19.347Z,99935.94
2024-03-02T20:54:46.653Z,99928.25
2024-03-02T20:57:13.834Z,99935.94
2024-03-02T20:59:40.703Z,99940.22
2024-03-02T21:02:07.689Z,99947.09
2024-03-02T21:04:34.448Z,99942.81
2024-03-02T21:07:01.130Z,99940.28
2024-03-02T21:09:27.807Z,99939.44
2024-03-02T21:11:54.512Z,99939.41
2024-03-02T21:14:21.075Z,99942.03
2024-03-02T21:16:50.628Z,99951.44
2024-03-02T21:19:17.894Z,99945.47
2024-03-02T21:21:44.698Z,99948.91
2024-03-02T21:24:11.337Z,99954.06
2024-03-02T21:26:39.282Z,99954.09
2024-03-02T21:29:05.924Z,99955.84
2024-03-02T21:31:32.518Z,99953.25
2024-03-02T21:33:59.167Z,99962.66
2024-03-02T21:36:25.749Z,99958.38
2024-03-02T21:38:52.446Z,99958.38
2024-03-02T21:41:19.102Z,99960.91
2024-03-02T21:43:45.805Z,99961.81
2024-03-02T21:46:13.623Z,99965.28
2024-03-02T21:48:40.312Z,99961.78
2024-03-02T21:51:07.005Z,99960.88
2024-03-02T21:53:34.425Z,99957.50
2024-03-02T21:56:01.055Z,99955.72
2024-03-02T21:58:27.625Z,99958.34
2024-03-02T22:00:54.228Z,99966.09
2024-03-02T22:03:20.848Z,99966.03
2024-03-02T22:05:47.397Z,99970.34
2024-03-02T22:08:13.938Z,99972.00
2024-03-02T22:10:40.492Z,99962.59
2024-03-02T22:13:07.132Z,99967.59
2024-03-02T22:15:33.925Z,99969.31
2024-03-02T22:18:04.141Z,99965.88
2024-03-02T22:20:30.859Z,99971.00
2024-03-02T22:22:58.575Z,99977.84
2024-03-02T22:25:28.242Z,99970.94
2024-03-02T22:27:57.710Z,99964.91
2024-03-02T22:30:24.495Z,99970.91
2024-03-02T22:32:52.097Z,99978.59
2024-03-02T22:35:21.212Z,99968.41
2024-03-02T22:37:49.033Z,99976.16
2024-03-02T22:40:15.801Z,99977.88
2024-03-02T22:42:42.408Z,99972.69
2024-03-02T22:45:09.418Z,99970.94
2024-03-02T22:47:36.080Z,99969.19
2024-03-02T22:50:02.921Z,99968.31
2024-03-02T22:52:29.525Z,99971.66
2024-03-02T22:54:57.232Z,99969.94
2024-03-02T22:57:23.796Z,99971.63
2024-03-02T22:59:51.275Z,99974.31
2024-03-02T23:02:18.796Z,99975.09
2024-03-02T23:04:45.628Z,99971.59
2024-03-02T23:07:12.262Z,99980.19
2024-03-02T23:09:38.989Z,99967.34
2024-03-02T23:12:05.834Z,99974.28
2024-03-02T23:14:32.420Z,99973.31
2024-03-02T23:16:58.961Z,99975.03
2024-03-02T23:19:25.506Z,99969.06
2024-03-02T23:21:52.443Z,99962.13
2024-03-02T23:24:19.259Z,99967.28
2024-03-02T23:26:45.827Z,99962.16
2024-03-02T23:29:12.482Z,99962.94
2024-03-02T23:31:39.063Z,99954.44
2024-03-02T23:34:06.452Z,99965.56
2024-03-02T23:36:34.038Z,99960.41
2024-03-02T23:39:05.577Z,99956.13
2024-03-02T23:41:32.627Z,99963.88
2024-03-02T23:44:02.270Z,99951.75
2024-03-02T23:46:30.015Z,99951.75
2024-03-02T23:48:57.005Z,99946.63
2024-03-02T23:51:23.965Z,99968.97
2024-03-02T23:53:50.694Z,99956.06
2024-03-02T23:56:17.536Z,99966.41
2024-03-02T23:58:45.922Z,99958.72
